This is the latest recevied weather packets stored in our database for station/object SV9TNF-1. If no packets are shown the sender has not sent any weather packets the latest 10 day(s).
| Time | Temp. | Humidity | Pressure | Rain* | Wind** | Luminosity | Snow |
|---|---|---|---|---|---|---|---|
| 1778325878 | 27.22° C | 41% | 1003.1 hPa | 0 mm | 10.28 m/s, 55° | - | - |
| 1778325578 | 28.33° C | 39% | 1002.7 hPa | 0 mm | 5.36 m/s, 43° | - | - |
| 1778325278 | 29.44° C | 38% | 1002.7 hPa | 0 mm | 2.24 m/s, 134° | - | - |
| 1778324978 | 28.89° C | 40% | 1002.7 hPa | 0 mm | 7.15 m/s, 301° | - | - |
| 1778324678 | 29.44° C | 37% | 1002.7 hPa | 0 mm | 4.47 m/s, 7° | - | - |
| 1778324378 | 29.44° C | 43% | 1003.1 hPa | 0 mm | 0.89 m/s, 124° | - | - |
| 1778324078 | 27.78° C | 44% | 1003.1 hPa | 0 mm | 7.6 m/s, 346° | - | - |
| 1778323778 | 28.33° C | 43% | 1003.1 hPa | 0 mm | 3.58 m/s, 125° | - | - |
| 1778323478 | 28.89° C | 42% | 1003.1 hPa | 0 mm | 1.34 m/s, 127° | - | - |
| 1778323177 | 28.33° C | 42% | 1003.1 hPa | 0 mm | 5.81 m/s, 0° | - | - |
| 1778322877 | 28.33° C | 41% | 1003.1 hPa | 0 mm | 7.15 m/s, 332° | - | - |
| 1778322577 | 29.44° C | 42% | 1003.1 hPa | 0 mm | 1.79 m/s, 109° | - | - |
| 1778322277 | 28.33° C | 44% | 1003.1 hPa | 0 mm | 4.02 m/s, 114° | - | - |
| 1778321977 | 26.67° C | 47% | 1003.1 hPa | 0 mm | 4.02 m/s, 122° | - | - |
| 1778321677 | 26.67° C | 47% | 1003.1 hPa | 0 mm | 2.68 m/s, 137° | - | - |
| 1778321377 | 26.67° C | 49% | 1003.1 hPa | 0 mm | 4.47 m/s, 98° | - | - |
| 1778321077 | 26.67° C | 46% | 1003.1 hPa | 0 mm | 3.58 m/s, 109° | - | - |
| 1778320777 | 26.67° C | 48% | 1003.1 hPa | 0 mm | 0.45 m/s, 118° | - | - |
| 1778320477 | 26.67° C | 45% | 1003.1 hPa | 0 mm | 4.02 m/s, 116° | - | - |
| 1778320177 | 27.22° C | 43% | 1003.1 hPa | 0 mm | 4.02 m/s, 131° | - | - |
| 1778319876 | 27.22° C | 43% | 1003.1 hPa | 0 mm | 1.79 m/s, 122° | - | - |
| 1778319577 | 27.22° C | 43% | 1003.1 hPa | 0 mm | 4.02 m/s, 151° | - | - |
| 1778319277 | 27.22° C | 43% | 1003.1 hPa | 0 mm | 3.13 m/s, 114° | - | - |
| 1778318976 | 26.67° C | 42% | 1003.1 hPa | 0 mm | 4.92 m/s, 109° | - | - |
| 1778318676 | 27.22° C | 40% | 1003.1 hPa | 0 mm | 1.34 m/s, 128° | - | - |
* Rain latest hour (hover to see other rain measurements)
** Current wind speed in m/s (hover to see current wind gust speed)